Time;durP1;ratioP1;P1;durP2;ratioP2;P2;SDS_P1;SDS_P2;PMS_P1;PMS_P2;Temp;Humidity;BMP_temperature;BMP_pressure;BME280_temperature;BME280_humidity;BME280_pressure;Samples;Min_cycle;Max_cycle;Signal;HPM_P1;HPM_P2
2022/11/24 00:02:02;;;;;;;;;;;;;;;9.00;68.67;94620.50;5030921;28;20014;-73
2022/11/24 00:04:27;;;;;;;;;;;;;;;8.96;68.41;94611.63;5029657;28;20018;-73
2022/11/24 00:06:52;;;;;;;;;;;;;;;8.62;68.95;94623.59;5036805;28;20382;-73
2022/11/24 00:09:18;;;;;;;;;;;;;;;8.70;69.60;94630.03;5050439;28;20002;-73
2022/11/24 00:11:43;;;;;;;;;;;;;;;8.88;68.69;94625.59;5038839;28;20010;-73
2022/11/24 00:14:08;;;;;;;;;;;;;;;8.18;70.45;94637.63;5010981;28;20382;-73
2022/11/24 00:16:35;;;;;;;;;;;;;;;8.43;70.37;94630.97;5010201;28;20053;-73
2022/11/24 00:19:01;;;;;;;;;;;;;;;8.45;69.47;94628.81;5031870;28;20014;-73
2022/11/24 00:21:27;;;;;;;;;;;;;;;8.85;68.84;94627.78;5044284;28;20016;-73
2022/11/24 00:23:52;;;;;;;;;;;;;;;8.89;68.72;94630.59;5049013;28;20414;-74
2022/11/24 00:26:19;;;;;;;;;;;;;;;8.62;69.36;94634.22;5039269;28;20018;-73
2022/11/24 00:28:45;;;;;;;;;;;;;;;8.91;68.63;94643.56;5028343;28;20014;-73
2022/11/24 00:31:18;;;;;;;;;;;;;;;8.99;68.33;94648.91;5012336;28;20021;-73
2022/11/24 00:33:43;;;;;;;;;;;;;;;9.12;67.42;94641.94;5026405;28;20105;-73
2022/11/24 00:36:09;;;;;;;;;;;;;;;8.77;68.05;94657.69;5029590;28;20506;-73
2022/11/24 00:38:34;;;;;;;;;;;;;;;8.99;67.63;94648.13;5028554;28;20580;-72
2022/11/24 00:40:59;;;;;;;;;;;;;;;8.32;69.87;94651.59;5029853;28;20061;-73
2022/11/24 00:43:24;;;;;;;;;;;;;;;8.87;68.70;94666.47;5029605;28;20012;-72
2022/11/24 00:45:50;;;;;;;;;;;;;;;9.03;67.47;94659.69;5009891;28;20014;-73
2022/11/24 00:48:15;;;;;;;;;;;;;;;8.95;67.59;94665.72;5031169;28;20017;-73
2022/11/24 00:50:40;;;;;;;;;;;;;;;9.31;66.88;94655.72;5039336;28;20017;-73
2022/11/24 00:53:06;;;;;;;;;;;;;;;9.41;66.06;94654.69;5049655;28;20067;-72
2022/11/24 00:55:31;;;;;;;;;;;;;;;8.98;66.55;94671.22;5014005;28;20473;-72
2022/11/24 00:57:56;;;;;;;;;;;;;;;8.42;68.91;94682.41;5029736;28;20014;-73
2022/11/24 01:00:21;;;;;;;;;;;;;;;8.52;68.92;94685.59;5034611;28;20018;-73
2022/11/24 01:02:47;;;;;;;;;;;;;;;8.77;68.06;94691.38;5029468;28;20018;-72
2022/11/24 01:05:12;;;;;;;;;;;;;;;8.84;67.96;94695.16;5029540;28;20048;-73
2022/11/24 01:07:37;;;;;;;;;;;;;;;8.83;68.17;94703.44;5030000;28;20064;-73
2022/11/24 01:10:03;;;;;;;;;;;;;;;8.79;68.02;94691.84;5031747;28;20351;-73
2022/11/24 01:12:29;;;;;;;;;;;;;;;8.41;69.29;94702.84;5023981;28;20097;-72
2022/11/24 01:14:54;;;;;;;;;;;;;;;8.74;68.44;94702.59;5033063;28;20489;-72
2022/11/24 01:17:19;;;;;;;;;;;;;;;8.28;70.11;94712.34;5027751;28;20079;-73
2022/11/24 01:19:48;;;;;;;;;;;;;;;8.54;69.55;94703.84;5011161;28;20055;-74
2022/11/24 01:22:13;;;;;;;;;;;;;;;8.54;69.22;94711.81;5029815;28;20006;-73
2022/11/24 01:24:38;;;;;;;;;;;;;;;8.40;69.05;94740.25;5027870;28;20010;-73
2022/11/24 01:27:04;;;;;;;;;;;;;;;8.24;70.35;94734.44;5015088;28;20010;-72
2022/11/24 01:29:29;;;;;;;;;;;;;;;8.44;69.74;94731.38;5033910;28;20020;-73
2022/11/24 01:31:55;;;;;;;;;;;;;;;8.53;69.21;94729.56;5031638;28;20474;-74
2022/11/24 01:34:20;;;;;;;;;;;;;;;8.65;68.77;94733.56;5033686;28;20052;-73
2022/11/24 01:36:45;;;;;;;;;;;;;;;8.70;68.37;94747.50;5013980;28;20482;-72
2022/11/24 01:39:10;;;;;;;;;;;;;;;9.25;67.43;94744.53;5033377;28;20006;-73
2022/11/24 01:41:35;;;;;;;;;;;;;;;9.42;65.47;94751.03;5032373;28;20014;-73
2022/11/24 01:44:18;;;;;;;;;;;;;;;9.60;65.67;94747.34;5040998;28;20014;-77
2022/11/24 01:46:46;;;;;;;;;;;;;;;9.50;65.17;94753.72;5014212;28;20018;-75
2022/11/24 01:49:16;;;;;;;;;;;;;;;9.26;65.69;94759.38;5032490;28;20025;-75
2022/11/24 01:51:45;;;;;;;;;;;;;;;9.21;65.92;94762.16;5016095;28;20100;-75
2022/11/24 01:54:13;;;;;;;;;;;;;;;9.60;65.22;94776.56;5015243;28;20010;-74
2022/11/24 01:56:39;;;;;;;;;;;;;;;9.32;65.10;94773.31;5021513;28;20010;-76
2022/11/24 01:59:06;;;;;;;;;;;;;;;9.35;65.32;94770.81;5015492;28;20075;-75
2022/11/24 02:01:32;;;;;;;;;;;;;;;9.56;64.58;94775.59;5014828;28;20498;-76
2022/11/24 02:03:58;;;;;;;;;;;;;;;9.52;64.88;94778.13;5015422;28;20017;-77
2022/11/24 02:06:27;;;;;;;;;;;;;;;9.12;65.97;94785.22;5014241;28;20014;-75
2022/11/24 02:09:13;;;;;;;;;;;;;;;8.92;66.59;94789.16;5015629;28;20033;-76
2022/11/24 02:11:39;;;;;;;;;;;;;;;9.06;65.96;94762.56;4987417;28;20025;-76
2022/11/24 02:14:06;;;;;;;;;;;;;;;9.34;65.38;94797.69;5027945;28;20025;-79
2022/11/24 02:16:33;;;;;;;;;;;;;;;8.98;66.01;94795.91;5031550;28;20014;-71
2022/11/24 02:18:58;;;;;;;;;;;;;;;8.77;66.76;94797.47;5015105;28;20018;-75
2022/11/24 02:21:24;;;;;;;;;;;;;;;9.01;66.21;94805.91;5015270;28;20025;-79
2022/11/24 02:24:02;;;;;;;;;;;;;;;9.06;66.16;94805.78;5015630;28;20478;-75
2022/11/24 02:26:47;;;;;;;;;;;;;;;9.19;65.55;94804.16;5004659;28;20014;-76
2022/11/24 02:29:13;;;;;;;;;;;;;;;9.69;64.43;94813.78;5031831;28;20521;-75
2022/11/24 02:31:41;;;;;;;;;;;;;;;9.48;64.30;94810.88;5013986;28;20057;-76
2022/11/24 02:34:06;;;;;;;;;;;;;;;9.80;63.47;94820.41;5032570;28;20504;-76
2022/11/24 02:36:31;;;;;;;;;;;;;;;9.15;65.46;94813.00;5012742;28;20109;-77
2022/11/24 02:38:57;;;;;;;;;;;;;;;8.77;67.41;94818.66;5029889;28;20043;-75
2022/11/24 02:41:24;;;;;;;;;;;;;;;9.32;65.68;94826.41;5037297;22;20037;-68
2022/11/24 02:43:56;;;;;;;;;;;;;;;9.27;64.89;94822.00;5064777;28;20056;-67
2022/11/24 02:46:21;;;;;;;;;;;;;;;9.92;63.43;94825.13;5069728;28;20013;-67
2022/11/24 02:48:46;;;;;;;;;;;;;;;9.77;63.52;94827.09;5071429;28;20425;-67
2022/11/24 02:51:12;;;;;;;;;;;;;;;9.69;63.92;94827.06;5070711;28;20071;-66
2022/11/24 02:53:37;;;;;;;;;;;;;;;10.07;62.82;94833.47;5061825;28;20035;-68
2022/11/24 02:56:02;;;;;;;;;;;;;;;10.29;62.13;94823.88;5085414;28;20013;-66
2022/11/24 02:58:27;;;;;;;;;;;;;;;9.78;63.58;94833.22;5070603;28;20021;-67
2022/11/24 03:00:53;;;;;;;;;;;;;;;10.04;62.04;94833.31;5069454;28;20013;-67
2022/11/24 03:03:19;;;;;;;;;;;;;;;10.28;62.41;94828.41;5071456;28;20009;-67
2022/11/24 03:05:44;;;;;;;;;;;;;;;10.35;61.59;94836.72;5069827;28;20056;-67
2022/11/24 03:08:09;;;;;;;;;;;;;;;10.37;62.15;94831.88;5070720;28;20377;-67
2022/11/24 03:10:34;;;;;;;;;;;;;;;10.43;61.45;94837.03;5070594;28;20020;-67
2022/11/24 03:12:59;;;;;;;;;;;;;;;9.89;63.01;94837.94;5070339;28;20477;-67
2022/11/24 03:15:25;;;;;;;;;;;;;;;9.45;64.29;94843.34;5068739;28;20067;-66
2022/11/24 03:17:55;;;;;;;;;;;;;;;9.99;63.54;94846.75;5070949;28;20088;-67
2022/11/24 03:20:20;;;;;;;;;;;;;;;10.56;61.60;94844.13;5069723;28;20013;-67
2022/11/24 03:22:45;;;;;;;;;;;;;;;9.32;64.61;94853.72;5070873;28;20009;-66
2022/11/24 03:25:11;;;;;;;;;;;;;;;9.58;64.12;94847.81;5070667;28;20017;-67
2022/11/24 03:27:36;;;;;;;;;;;;;;;10.09;63.00;94854.44;5069732;28;20020;-66
2022/11/24 03:30:01;;;;;;;;;;;;;;;10.00;62.42;94858.94;5070389;28;20064;-67
2022/11/24 03:32:26;;;;;;;;;;;;;;;9.57;63.81;94854.16;5069805;28;20014;-67
2022/11/24 03:34:52;;;;;;;;;;;;;;;9.65;63.60;94858.75;5067794;28;20519;-66
2022/11/24 03:37:17;;;;;;;;;;;;;;;9.82;63.27;94864.16;5069604;28;20017;-67
2022/11/24 03:39:42;;;;;;;;;;;;;;;9.69;64.44;94866.91;5069185;28;20013;-66
2022/11/24 03:42:08;;;;;;;;;;;;;;;9.43;64.46;94862.22;5070448;28;20017;-67
2022/11/24 03:44:33;;;;;;;;;;;;;;;9.31;65.65;94862.75;5069631;28;20066;-67
2022/11/24 03:46:58;;;;;;;;;;;;;;;9.76;63.99;94868.03;5069337;28;20021;-66
2022/11/24 03:49:23;;;;;;;;;;;;;;;9.23;65.28;94865.38;5062212;28;20010;-67
2022/11/24 03:51:48;;;;;;;;;;;;;;;9.33;65.70;94868.56;5060326;28;20013;-67
2022/11/24 03:54:14;;;;;;;;;;;;;;;9.15;65.85;94884.66;5069287;28;20020;-67
2022/11/24 03:56:39;;;;;;;;;;;;;;;9.52;64.89;94883.50;5070033;28;20055;-67
2022/11/24 03:59:04;;;;;;;;;;;;;;;9.78;64.85;94870.41;5069495;28;20057;-66
2022/11/24 04:01:29;;;;;;;;;;;;;;;9.98;63.61;94882.34;5068899;28;20019;-67
2022/11/24 04:03:55;;;;;;;;;;;;;;;9.41;65.63;94876.88;5069306;28;20014;-67
2022/11/24 04:06:20;;;;;;;;;;;;;;;8.74;67.85;94886.34;5069247;28;20055;-67
2022/11/24 04:08:45;;;;;;;;;;;;;;;8.81;67.40;94888.59;5069919;28;20012;-67
2022/11/24 04:12:42;;;;;;;;;;;;;;;8.77;68.35;94877.78;5070115;28;20362;-66
2022/11/24 04:13:56;;;;;;;;;;;;;;;9.24;66.04;94874.91;5066255;28;20013;-68
2022/11/24 04:16:21;;;;;;;;;;;;;;;8.78;67.93;94881.22;5060646;28;20013;-66
2022/11/24 04:18:46;;;;;;;;;;;;;;;8.79;67.39;94883.56;5062843;28;20022;-67
2022/11/24 04:21:11;;;;;;;;;;;;;;;9.02;66.82;94886.28;5050715;28;20012;-66
2022/11/24 04:23:37;;;;;;;;;;;;;;;9.25;66.10;94889.72;5062090;28;20044;-67
2022/11/24 04:26:02;;;;;;;;;;;;;;;8.95;67.02;94897.28;5069278;28;20094;-67
2022/11/24 04:28:27;;;;;;;;;;;;;;;9.33;66.32;94895.09;5070340;28;20010;-67
2022/11/24 04:30:52;;;;;;;;;;;;;;;9.50;65.44;94896.31;5067330;28;20023;-67
2022/11/24 04:33:18;;;;;;;;;;;;;;;9.42;65.12;94905.81;5069817;28;20067;-66
2022/11/24 04:35:43;;;;;;;;;;;;;;;9.46;65.30;94908.63;5068747;28;20528;-66
2022/11/24 04:38:08;;;;;;;;;;;;;;;9.03;66.10;94909.84;5068629;28;20066;-66
2022/11/24 04:40:33;;;;;;;;;;;;;;;9.35;65.71;94908.06;5068772;28;20017;-66
2022/11/24 04:42:59;;;;;;;;;;;;;;;9.46;65.32;94912.06;5070001;28;20067;-66
2022/11/24 04:45:24;;;;;;;;;;;;;;;9.43;64.96;94912.66;5063544;28;20012;-66
2022/11/24 04:47:49;;;;;;;;;;;;;;;9.17;66.27;94917.00;5069522;28;20013;-68
2022/11/24 04:50:15;;;;;;;;;;;;;;;9.64;64.96;94916.41;5069581;28;20006;-67
2022/11/24 04:52:40;;;;;;;;;;;;;;;9.00;67.06;94920.28;5068637;28;20025;-67
2022/11/24 04:55:06;;;;;;;;;;;;;;;9.64;65.60;94918.28;5069081;28;20012;-67
2022/11/24 04:57:31;;;;;;;;;;;;;;;10.28;62.67;94921.44;5068743;28;20056;-67
2022/11/24 04:59:56;;;;;;;;;;;;;;;10.48;62.56;94930.75;5069201;28;20112;-67
2022/11/24 05:02:22;;;;;;;;;;;;;;;10.50;62.15;94938.44;5070425;28;20511;-67
2022/11/24 05:04:47;;;;;;;;;;;;;;;10.07;63.09;94934.44;5073773;28;20012;-67
2022/11/24 05:07:13;;;;;;;;;;;;;;;10.66;62.15;94944.91;5072838;28;20100;-67
2022/11/24 05:10:33;;;;;;;;;;;;;;;10.66;61.77;94947.56;5073738;28;20010;-67
2022/11/24 05:12:23;;;;;;;;;;;;;;;10.56;62.78;94942.53;5072792;28;20334;-68
2022/11/24 05:14:49;;;;;;;;;;;;;;;10.44;62.40;94952.94;5071536;28;20497;-67
2022/11/24 05:17:14;;;;;;;;;;;;;;;10.72;61.68;94962.28;5072703;28;20028;-66
2022/11/24 05:19:39;;;;;;;;;;;;;;;10.21;62.71;94954.84;5073031;28;20009;-65
2022/11/24 05:22:05;;;;;;;;;;;;;;;10.22;63.33;94965.16;5072930;28;20011;-66
2022/11/24 05:24:30;;;;;;;;;;;;;;;10.31;62.61;94962.59;5070758;28;20041;-67
2022/11/24 05:26:55;;;;;;;;;;;;;;;10.59;62.31;94966.59;5072652;28;20067;-67
2022/11/24 05:29:20;;;;;;;;;;;;;;;10.11;63.87;94969.19;5070887;28;20041;-67
2022/11/24 05:31:51;;;;;;;;;;;;;;;10.21;63.45;94968.94;5067139;28;20033;-68
2022/11/24 05:34:17;;;;;;;;;;;;;;;10.09;63.91;94969.50;5072387;28;20108;-68
2022/11/24 05:36:55;;;;;;;;;;;;;;;10.17;63.19;94967.97;5072488;28;20518;-69
2022/11/24 05:39:20;;;;;;;;;;;;;;;10.39;63.16;94975.16;5072029;28;20020;-68
2022/11/24 05:41:46;;;;;;;;;;;;;;;10.30;63.30;94977.75;5072882;28;20013;-69
2022/11/24 05:44:11;;;;;;;;;;;;;;;10.41;62.58;94975.63;5070350;28;20017;-71
2022/11/24 05:46:36;;;;;;;;;;;;;;;10.31;62.13;94981.19;5070779;28;20379;-68
2022/11/24 05:49:02;;;;;;;;;;;;;;;10.59;61.91;94979.91;5072890;28;20013;-67
2022/11/24 05:51:27;;;;;;;;;;;;;;;10.40;62.61;94985.47;5072325;28;20100;-67
2022/11/24 05:53:52;;;;;;;;;;;;;;;10.12;63.11;94987.47;5071074;28;20557;-66
2022/11/24 05:56:18;;;;;;;;;;;;;;;10.68;62.17;94993.25;5069671;28;20017;-69
2022/11/24 05:58:43;;;;;;;;;;;;;;;10.83;61.02;94995.50;5071859;28;20112;-67
2022/11/24 06:01:08;;;;;;;;;;;;;;;10.96;60.18;95001.03;5071014;28;20009;-68
2022/11/24 06:03:33;;;;;;;;;;;;;;;11.28;59.46;95002.50;5072466;28;20009;-68
2022/11/24 06:05:59;;;;;;;;;;;;;;;9.97;63.13;95000.34;5072059;28;20009;-68
2022/11/24 06:08:24;;;;;;;;;;;;;;;10.32;61.80;95004.81;5072442;28;20005;-67
2022/11/24 06:10:49;;;;;;;;;;;;;;;10.41;62.24;95003.00;5069488;28;20494;-67
2022/11/24 06:13:14;;;;;;;;;;;;;;;10.35;61.84;95009.53;5070143;28;20013;-68
2022/11/24 06:15:40;;;;;;;;;;;;;;;10.51;61.46;95017.13;5069520;28;20006;-68
2022/11/24 06:18:05;;;;;;;;;;;;;;;10.61;61.63;95019.50;5072285;28;20024;-66
2022/11/24 06:20:30;;;;;;;;;;;;;;;10.30;61.53;95022.97;5071150;28;20100;-68
2022/11/24 06:22:59;;;;;;;;;;;;;;;10.66;63.04;95028.13;5071702;28;20009;-69
2022/11/24 06:25:25;;;;;;;;;;;;;;;10.97;62.01;95022.00;5051698;28;20009;-69
2022/11/24 06:27:50;;;;;;;;;;;;;;;11.13;60.30;95036.44;5052220;28;20010;-68
2022/11/24 06:30:15;;;;;;;;;;;;;;;11.22;59.53;95028.47;5052720;28;20016;-68
2022/11/24 06:32:43;;;;;;;;;;;;;;;11.83;59.06;95028.56;5059526;28;20315;-68
2022/11/24 06:35:09;;;;;;;;;;;;;;;11.42;58.06;95027.09;5068617;28;20017;-66
2022/11/24 06:37:35;;;;;;;;;;;;;;;11.64;57.58;95037.63;5071359;28;20010;-65
2022/11/24 06:40:00;;;;;;;;;;;;;;;11.22;58.24;95039.13;5071958;28;20016;-65
2022/11/24 06:42:25;;;;;;;;;;;;;;;11.42;57.85;95041.22;5068982;28;20572;-65
2022/11/24 06:44:50;;;;;;;;;;;;;;;11.52;57.47;95042.00;5063740;28;20067;-65
2022/11/24 06:47:15;;;;;;;;;;;;;;;11.32;58.33;95046.81;5060631;28;20024;-66
2022/11/24 06:49:41;;;;;;;;;;;;;;;10.78;59.91;95040.84;5055871;28;20373;-65
2022/11/24 06:52:06;;;;;;;;;;;;;;;11.19;58.90;95053.84;5067472;28;20010;-67
2022/11/24 06:54:31;;;;;;;;;;;;;;;11.63;58.03;95052.03;5070776;28;20016;-66
2022/11/24 06:56:57;;;;;;;;;;;;;;;11.29;57.58;95050.09;5070265;28;20496;-66
2022/11/24 06:59:22;;;;;;;;;;;;;;;11.49;57.37;95051.41;5065937;28;20014;-67
2022/11/24 07:01:47;;;;;;;;;;;;;;;11.47;57.89;95053.59;5068962;28;20052;-69
2022/11/24 07:04:13;;;;;;;;;;;;;;;11.66;57.11;95054.06;5053980;28;20013;-69
2022/11/24 07:06:40;;;;;;;;;;;;;;;11.73;57.39;95053.63;5064190;28;20159;-67
2022/11/24 07:09:05;;;;;;;;;;;;;;;11.67;57.07;95052.22;5052284;28;20014;-67
2022/11/24 07:11:31;;;;;;;;;;;;;;;11.70;57.11;95051.56;5070924;28;20016;-70
2022/11/24 07:13:56;;;;;;;;;;;;;;;11.74;56.96;95065.84;5068443;28;20012;-69
2022/11/24 07:16:23;;;;;;;;;;;;;;;11.78;56.49;95056.13;5067445;28;20017;-66
2022/11/24 07:18:50;;;;;;;;;;;;;;;12.00;56.50;95057.88;5068300;28;20047;-67
2022/11/24 07:21:15;;;;;;;;;;;;;;;12.03;56.09;95054.59;5066650;28;20010;-67
2022/11/24 07:23:41;;;;;;;;;;;;;;;11.83;56.24;95057.88;5076796;28;20013;-67
2022/11/24 07:26:07;;;;;;;;;;;;;;;11.30;56.47;94993.09;5069825;28;20092;-67
2022/11/24 07:28:32;;;;;;;;;;;;;;;11.64;56.90;95060.81;5070317;28;20009;-66
2022/11/24 07:30:57;;;;;;;;;;;;;;;11.41;57.65;95054.81;5068529;28;20124;-67
2022/11/24 07:33:24;;;;;;;;;;;;;;;11.29;57.41;95060.75;5062004;28;20009;-66
2022/11/24 07:35:50;;;;;;;;;;;;;;;11.28;58.23;95074.38;5060960;28;20009;-66
2022/11/24 07:38:16;;;;;;;;;;;;;;;11.27;57.74;95070.94;5070590;28;20100;-67
2022/11/24 07:40:41;;;;;;;;;;;;;;;11.32;58.08;95072.69;5069975;28;20389;-67
2022/11/24 07:43:06;;;;;;;;;;;;;;;11.17;57.85;95068.56;5054791;28;20389;-65
2022/11/24 07:45:31;;;;;;;;;;;;;;;11.18;57.81;95070.13;5062581;28;20016;-67
2022/11/24 07:47:56;;;;;;;;;;;;;;;11.21;58.08;95077.50;5068257;28;20010;-66
2022/11/24 07:50:22;;;;;;;;;;;;;;;11.22;58.49;95084.38;5064675;28;20067;-65
2022/11/24 07:52:47;;;;;;;;;;;;;;;11.37;58.10;95078.63;5066448;28;20013;-64
2022/11/24 07:55:12;;;;;;;;;;;;;;;11.27;57.49;95073.59;5070085;28;20005;-66
2022/11/24 07:57:37;;;;;;;;;;;;;;;11.35;57.24;95074.69;5069225;28;20056;-65
2022/11/24 08:00:03;;;;;;;;;;;;;;;11.49;57.10;95071.91;5067630;28;20013;-66
2022/11/24 08:02:28;;;;;;;;;;;;;;;11.56;56.51;95075.69;5068643;28;20473;-65
2022/11/24 08:04:53;;;;;;;;;;;;;;;11.58;56.29;95068.19;5066494;28;20017;-66
2022/11/24 08:07:19;;;;;;;;;;;;;;;11.62;56.61;95068.34;5067972;28;20388;-67
2022/11/24 08:09:44;;;;;;;;;;;;;;;11.48;56.28;95065.03;5061084;28;20010;-66
2022/11/24 08:12:09;;;;;;;;;;;;;;;11.55;56.04;95057.34;5060798;28;20525;-67
2022/11/24 08:14:34;;;;;;;;;;;;;;;11.60;55.95;95060.66;5062496;28;20013;-67
2022/11/24 08:17:00;;;;;;;;;;;;;;;11.51;55.23;95051.06;5066245;28;20374;-66
2022/11/24 08:19:25;;;;;;;;;;;;;;;11.32;55.93;95059.34;5068799;28;20428;-67
2022/11/24 08:21:50;;;;;;;;;;;;;;;11.37;55.74;95054.66;5067452;28;20404;-67
2022/11/24 08:24:15;;;;;;;;;;;;;;;11.14;55.70;95059.28;5068627;28;20021;-66
2022/11/24 08:26:41;;;;;;;;;;;;;;;11.39;55.76;95063.13;5068218;28;20010;-67
2022/11/24 08:29:07;;;;;;;;;;;;;;;11.61;54.72;95064.88;5070336;28;20070;-66
2022/11/24 08:31:33;;;;;;;;;;;;;;;11.93;54.23;95063.69;5069557;28;20373;-67
2022/11/24 08:33:59;;;;;;;;;;;;;;;11.27;55.73;95070.16;5069649;28;20045;-68
2022/11/24 08:36:24;;;;;;;;;;;;;;;10.99;56.01;95062.38;5069068;28;20064;-66
2022/11/24 08:38:53;;;;;;;;;;;;;;;11.33;54.26;95069.69;5069703;28;20103;-66
2022/11/24 08:41:18;;;;;;;;;;;;;;;11.83;53.45;95072.00;5069723;28;20365;-67
2022/11/24 08:43:43;;;;;;;;;;;;;;;11.37;54.06;95081.31;5080443;22;20017;-70
2022/11/24 08:46:10;;;;;;;;;;;;;;;10.65;56.37;95076.34;5069385;28;20012;-71
2022/11/24 08:48:36;;;;;;;;;;;;;;;11.35;54.23;95070.16;5070361;28;20377;-71
2022/11/24 08:51:06;;;;;;;;;;;;;;;11.28;54.45;95069.84;5070215;28;20005;-71
2022/11/24 08:53:31;;;;;;;;;;;;;;;11.33;54.49;95068.91;5070414;28;20381;-72
2022/11/24 08:55:59;;;;;;;;;;;;;;;11.43;54.58;95072.06;5069132;28;20005;-73
2022/11/24 08:58:25;;;;;;;;;;;;;;;12.58;52.22;95064.53;5049807;28;20009;-70
2022/11/24 09:00:50;;;;;;;;;;;;;;;11.78;53.35;95063.34;5049703;28;20663;-71
2022/11/24 09:03:15;;;;;;;;;;;;;;;11.96;52.81;95071.03;5048609;28;20014;-70
2022/11/24 09:05:40;;;;;;;;;;;;;;;11.17;54.57;95064.00;5047955;28;20389;-70
2022/11/24 09:08:06;;;;;;;;;;;;;;;11.89;53.26;95062.75;5049617;28;20013;-71
2022/11/24 09:10:31;;;;;;;;;;;;;;;11.97;52.70;95064.59;5048675;28;20013;-70
2022/11/24 09:12:56;;;;;;;;;;;;;;;12.11;51.79;95071.66;5049198;28;20049;-70
2022/11/24 09:15:21;;;;;;;;;;;;;;;12.25;51.99;95064.28;5048913;28;20009;-72
2022/11/24 09:17:47;;;;;;;;;;;;;;;12.37;51.36;95059.09;5049565;28;20022;-71
2022/11/24 09:20:12;;;;;;;;;;;;;;;12.32;51.03;95061.13;5049356;28;20068;-71
2022/11/24 09:22:38;;;;;;;;;;;;;;;12.04;52.37;95063.38;5047786;28;20462;-70
2022/11/24 09:25:05;;;;;;;;;;;;;;;12.34;51.54;95078.41;5047426;28;20513;-71
2022/11/24 09:27:30;;;;;;;;;;;;;;;12.76;51.36;95070.63;5049418;28;20056;-70
2022/11/24 09:29:56;;;;;;;;;;;;;;;12.15;51.73;95076.06;5049537;28;20006;-71
2022/11/24 09:32:21;;;;;;;;;;;;;;;12.01;52.16;95079.97;5049455;28;20010;-71
2022/11/24 09:34:46;;;;;;;;;;;;;;;12.10;52.24;95073.56;5048001;28;20071;-71
2022/11/24 09:37:11;;;;;;;;;;;;;;;12.92;50.91;95066.31;5048545;28;20473;-70
2022/11/24 09:39:36;;;;;;;;;;;;;;;12.34;50.90;95081.06;5049520;28;20006;-70
2022/11/24 09:42:02;;;;;;;;;;;;;;;12.27;51.49;95072.75;5049440;28;20493;-71
2022/11/24 09:44:45;;;;;;;;;;;;;;;11.51;52.77;95075.03;5049219;28;20014;-70
2022/11/24 09:47:29;;;;;;;;;;;;;;;11.71;52.83;95083.22;5050869;28;20380;-70
2022/11/24 09:50:12;;;;;;;;;;;;;;;11.62;53.25;95087.78;5053126;28;20436;-70
2022/11/24 09:52:40;;;;;;;;;;;;;;;11.20;54.03;95079.34;5052982;28;20478;-70
2022/11/24 09:55:24;;;;;;;;;;;;;;;12.21;51.51;95079.34;5052471;28;20096;-70
2022/11/24 09:58:09;;;;;;;;;;;;;;;11.28;53.08;95083.16;5052635;28;20560;-70
2022/11/24 10:00:36;;;;;;;;;;;;;;;11.50;53.21;95084.13;5050538;28;20067;-70
2022/11/24 10:03:01;;;;;;;;;;;;;;;11.59;53.13;95098.25;5052458;28;20081;-71
2022/11/24 10:05:29;;;;;;;;;;;;;;;11.47;53.49;95098.88;5051590;28;20413;-71
2022/11/24 10:07:54;;;;;;;;;;;;;;;12.34;52.00;95098.97;5051493;28;20010;-71
2022/11/24 10:10:24;;;;;;;;;;;;;;;10.95;54.48;95104.00;5051244;28;20059;-72
2022/11/24 10:13:04;;;;;;;;;;;;;;;10.79;55.10;95108.16;5052659;28;20498;-71
2022/11/24 10:15:42;;;;;;;;;;;;;;;10.25;57.55;95116.13;5050334;28;20592;-70
2022/11/24 10:18:07;;;;;;;;;;;;;;;10.29;57.53;95125.06;5052548;28;20009;-70
2022/11/24 10:20:32;;;;;;;;;;;;;;;10.00;58.15;95133.41;5052535;28;20462;-70
2022/11/24 10:23:11;;;;;;;;;;;;;;;10.08;58.78;95137.22;5052557;28;20715;-70
2022/11/24 10:25:36;;;;;;;;;;;;;;;9.08;64.35;95132.63;5051556;28;20009;-71
2022/11/24 10:28:03;;;;;;;;;;;;;;;8.82;65.63;95142.13;5050703;28;20354;-71
2022/11/24 10:30:28;;;;;;;;;;;;;;;8.56;67.06;95145.22;5052356;28;20006;-70
2022/11/24 10:33:07;;;;;;;;;;;;;;;8.41;69.03;95149.97;5052124;28;20006;-70
2022/11/24 10:35:38;;;;;;;;;;;;;;;8.38;70.37;95150.53;5051938;28;20009;-70
2022/11/24 10:38:14;;;;;;;;;;;;;;;8.01;71.39;95150.25;5051312;28;20025;-70
2022/11/24 10:40:43;;;;;;;;;;;;;;;7.70;73.43;95162.34;5051995;28;20005;-70
2022/11/24 10:43:09;;;;;;;;;;;;;;;7.70;74.37;95162.34;5051472;28;20029;-69
2022/11/24 10:45:36;;;;;;;;;;;;;;;7.49;75.14;95164.44;5050818;28;20009;-71
2022/11/24 10:48:02;;;;;;;;;;;;;;;7.56;75.39;95163.03;5051802;28;20079;-70
2022/11/24 10:50:32;;;;;;;;;;;;;;;7.74;74.12;95169.44;5051835;28;20385;-70
2022/11/24 10:53:12;;;;;;;;;;;;;;;7.86;74.49;95173.50;5050675;28;20013;-71
2022/11/24 10:55:55;;;;;;;;;;;;;;;8.19;73.10;95161.13;5051199;28;20012;-72
2022/11/24 10:58:22;;;;;;;;;;;;;;;8.61;71.81;95156.81;5050842;28;20068;-72
2022/11/24 11:00:48;;;;;;;;;;;;;;;8.57;72.19;95153.94;5051448;28;20009;-72
2022/11/24 11:03:20;;;;;;;;;;;;;;;8.73;70.81;95157.91;5051501;28;20009;-71
2022/11/24 11:05:54;;;;;;;;;;;;;;;8.62;71.73;95153.06;5049762;28;20139;-72
2022/11/24 11:08:30;;;;;;;;;;;;;;;8.93;70.13;95153.34;5051258;28;20056;-69
2022/11/24 11:11:17;;;;;;;;;;;;;;;9.36;69.56;95164.47;5051359;28;20465;-70
2022/11/24 11:13:56;;;;;;;;;;;;;;;8.96;70.58;95158.84;5051680;28;20001;-70
2022/11/24 11:16:23;;;;;;;;;;;;;;;8.32;72.21;95177.09;5051003;28;20096;-72
2022/11/24 11:18:48;;;;;;;;;;;;;;;8.80;72.35;95165.47;5050056;28;20116;-70
2022/11/24 11:21:25;;;;;;;;;;;;;;;8.79;70.40;95102.91;5051266;28;20104;-70
2022/11/24 11:23:51;;;;;;;;;;;;;;;9.20;71.76;95163.19;5051208;28;20009;-71
2022/11/24 11:26:16;;;;;;;;;;;;;;;9.41;69.38;95158.28;5050921;28;20059;-71
2022/11/24 11:28:55;;;;;;;;;;;;;;;9.19;70.19;95165.06;5049869;28;20095;-70
2022/11/24 11:31:20;;;;;;;;;;;;;;;9.37;70.87;95164.19;5050943;28;20021;-70
2022/11/24 11:33:57;;;;;;;;;;;;;;;9.71;69.94;95164.84;5048380;28;20009;-71
2022/11/24 11:36:23;;;;;;;;;;;;;;;9.82;69.60;95164.34;5050534;28;20005;-71
2022/11/24 11:38:48;;;;;;;;;;;;;;;9.35;70.00;95171.66;5050781;28;20474;-71
2022/11/24 11:41:19;;;;;;;;;;;;;;;9.73;69.84;95171.44;5050731;28;20010;-71
2022/11/24 11:43:46;;;;;;;;;;;;;;;9.48;69.45;95172.75;5051095;28;20442;-71
2022/11/24 11:46:14;;;;;;;;;;;;;;;8.66;73.36;95177.94;5048798;28;20017;-70
2022/11/24 11:48:43;;;;;;;;;;;;;;;8.80;72.42;95181.41;5048830;28;20146;-70
2022/11/24 11:51:08;;;;;;;;;;;;;;;8.98;72.50;95180.56;5050641;28;20006;-69
2022/11/24 11:53:44;;;;;;;;;;;;;;;9.45;72.21;95175.19;5049451;28;20474;-70
2022/11/24 11:56:28;;;;;;;;;;;;;;;9.20;70.95;95169.28;5050189;28;20005;-70
2022/11/24 11:59:08;;;;;;;;;;;;;;;9.06;71.46;95171.94;5049577;28;20425;-71
2022/11/24 12:01:48;;;;;;;;;;;;;;;9.99;70.25;95177.00;5049172;28;20378;-70
2022/11/24 12:04:19;;;;;;;;;;;;;;;9.57;70.45;95173.63;5049403;28;20010;-70
2022/11/24 12:06:53;;;;;;;;;;;;;;;9.99;70.03;95179.66;5048608;28;20069;-71
2022/11/24 12:09:22;;;;;;;;;;;;;;;9.82;70.34;95177.63;5048302;28;20512;-72
2022/11/24 12:11:59;;;;;;;;;;;;;;;9.41;71.29;95176.84;5050270;28;20014;-71
2022/11/24 12:14:32;;;;;;;;;;;;;;;9.72;71.24;95177.81;5049618;28;20124;-71
2022/11/24 12:17:29;;;;;;;;;;;;;;;9.88;69.27;95170.34;5050016;28;20101;-71
2022/11/24 12:20:13;;;;;;;;;;;;;;;9.82;70.74;95177.63;5050525;28;20014;-70
2022/11/24 12:22:58;;;;;;;;;;;;;;;9.45;72.32;95175.97;5050280;28;20006;-71
2022/11/24 12:25:41;;;;;;;;;;;;;;;9.93;71.38;95182.72;5047962;28;20006;-71
2022/11/24 12:28:16;;;;;;;;;;;;;;;9.45;72.54;95183.94;5050450;28;20035;-71
2022/11/24 12:30:47;;;;;;;;;;;;;;;10.19;69.82;95188.28;5050096;28;20071;-70
2022/11/24 12:33:48;;;;;;;;;;;;;;;10.35;69.20;95187.69;5048441;28;20014;-71
2022/11/24 12:36:25;;;;;;;;;;;;;;;9.90;71.56;95190.22;5007534;28;20049;-72
2022/11/24 12:39:01;;;;;;;;;;;;;;;10.44;69.74;95190.41;5043780;28;20064;-71
2022/11/24 12:41:50;;;;;;;;;;;;;;;9.70;71.66;95185.31;5049660;28;20112;-71
2022/11/24 12:44:26;;;;;;;;;;;;;;;10.52;69.56;95180.91;5050222;28;20014;-71
2022/11/24 12:46:54;;;;;;;;;;;;;;;10.79;67.05;95185.31;5049438;28;20462;-71
2022/11/24 12:49:22;;;;;;;;;;;;;;;10.29;69.27;95188.09;5049980;28;20001;-72
2022/11/24 12:51:52;;;;;;;;;;;;;;;9.99;69.39;95186.88;5049631;28;20016;-72
2022/11/24 12:54:19;;;;;;;;;;;;;;;10.39;67.75;95188.66;5049038;28;20022;-72
2022/11/24 12:57:03;;;;;;;;;;;;;;;9.92;70.41;95173.19;5048041;28;20017;-72